Time;durP1;ratioP1;P1;durP2;ratioP2;P2;SDS_P1;SDS_P2;PMS_P1;PMS_P2;Temp;Humidity;BMP_temperature;BMP_pressure;BME280_temperature;BME280_humidity;BME280_pressure;Samples;Min_cycle;Max_cycle;Signal;HPM_P1;HPM_P2
2022/01/19 00:01:19;;;;;;;26.98;12.25;;;;;;;2.71;89.17;102021.13;5082131;28;20493;-54
2022/01/19 00:03:46;;;;;;;21.83;10.85;;;;;;;2.72;89.16;102016.06;5080964;28;20044;-54
2022/01/19 00:06:13;;;;;;;31.85;14.27;;;;;;;2.74;89.04;102011.00;5080467;28;20040;-55
2022/01/19 00:08:41;;;;;;;29.52;12.73;;;;;;;2.75;88.71;102012.75;5079825;28;20048;-55
2022/01/19 00:11:08;;;;;;;16.08;6.18;;;;;;;2.77;88.62;102006.91;5077460;28;20052;-55
2022/01/19 00:13:35;;;;;;;31.35;14.57;;;;;;;2.78;88.83;102012.91;5081813;28;20040;-55
2022/01/19 00:16:03;;;;;;;52.28;18.60;;;;;;;2.81;88.59;102002.78;5077558;28;20048;-55
2022/01/19 00:18:32;;;;;;;29.90;11.30;;;;;;;2.83;88.63;102001.16;5077636;28;20056;-55
2022/01/19 00:20:59;;;;;;;30.20;12.52;;;;;;;2.83;87.90;101999.47;5080289;28;20070;-53
2022/01/19 00:23:26;;;;;;;9.52;5.03;;;;;;;2.83;88.04;101998.59;5078863;28;20051;-53
2022/01/19 00:25:55;;;;;;;16.35;8.25;;;;;;;2.87;87.80;101997.91;5079394;28;20039;-54
2022/01/19 00:28:23;;;;;;;116.68;63.28;;;;;;;2.89;87.34;102001.44;5078029;28;20045;-54
2022/01/19 00:30:51;;;;;;;62.42;35.40;;;;;;;2.89;87.26;101986.06;5080351;28;20079;-55
2022/01/19 00:33:19;;;;;;;9.45;5.68;;;;;;;2.91;87.08;101989.56;5079301;28;20061;-54
2022/01/19 00:35:49;;;;;;;63.05;39.97;;;;;;;2.96;86.92;101980.38;5078949;28;20044;-54
2022/01/19 00:38:17;;;;;;;29.35;16.00;;;;;;;2.97;86.63;101977.00;5078428;28;20117;-55
2022/01/19 00:40:46;;;;;;;22.38;13.52;;;;;;;3.02;86.76;101974.63;5076954;28;20048;-55
2022/01/19 00:43:14;;;;;;;26.48;14.70;;;;;;;3.04;86.86;101966.19;5080951;28;20044;-55
2022/01/19 00:45:42;;;;;;;21.10;11.85;;;;;;;3.06;86.41;101962.00;5081594;28;20127;-54
2022/01/19 00:48:09;;;;;;;26.40;16.40;;;;;;;3.08;86.60;101952.72;5077593;28;20408;-55
2022/01/19 00:50:37;;;;;;;10.38;6.28;;;;;;;3.12;85.97;101956.28;5084280;28;20059;-55
2022/01/19 00:53:05;;;;;;;11.05;4.82;;;;;;;3.15;86.01;101965.00;5079800;28;20044;-55
2022/01/19 00:55:33;;;;;;;15.05;12.27;;;;;;;3.17;85.61;101957.38;5086621;28;20048;-55
2022/01/19 00:58:00;;;;;;;18.27;12.07;;;;;;;3.19;85.47;101960.00;5079686;28;20053;-54
2022/01/19 01:00:29;;;;;;;71.28;44.97;;;;;;;3.21;85.77;101963.50;5077573;28;20421;-55
2022/01/19 01:02:56;;;;;;;58.10;35.15;;;;;;;3.20;85.51;101957.50;5077441;28;20047;-55
2022/01/19 01:05:24;;;;;;;98.70;58.47;;;;;;;3.22;85.38;101949.88;5079580;28;20051;-55
2022/01/19 01:07:52;;;;;;;38.78;22.08;;;;;;;3.21;85.77;101945.56;5077113;28;20056;-54
2022/01/19 01:10:21;;;;;;;25.83;14.98;;;;;;;3.24;85.66;101950.81;5076154;28;20056;-54
2022/01/19 01:12:51;;;;;;;78.65;45.40;;;;;;;3.25;85.37;101945.75;5078852;28;20123;-55
2022/01/19 01:15:30;;;;;;;19.10;9.25;;;;;;;3.26;85.65;101926.13;5082244;28;20366;-54
2022/01/19 01:20:43;;;;;;;18.75;11.77;;;;;;;3.29;85.09;101921.09;5081537;28;20059;-54
2022/01/19 01:23:11;;;;;;;66.95;38.85;;;;;;;3.30;85.12;101915.16;5082605;28;20063;-54
2022/01/19 01:25:40;;;;;;;42.30;21.90;;;;;;;3.30;84.84;101899.78;5078724;28;20047;-55
2022/01/19 01:28:08;;;;;;;106.57;58.60;;;;;;;3.33;84.97;101910.16;5077879;28;20044;-53
2022/01/19 01:30:36;;;;;;;43.25;21.25;;;;;;;3.33;85.54;101912.72;5087044;28;20040;-54
2022/01/19 01:33:03;;;;;;;58.00;28.88;;;;;;;3.32;85.14;101921.22;5087320;28;20055;-53
2022/01/19 01:35:31;;;;;;;100.10;52.00;;;;;;;3.34;85.48;101909.34;5083826;28;20508;-55
2022/01/19 01:37:58;;;;;;;36.88;20.52;;;;;;;3.37;85.00;101909.47;5081087;28;20048;-55
2022/01/19 01:40:26;;;;;;;68.18;39.25;;;;;;;3.36;85.43;101908.59;5080758;28;20036;-54
2022/01/19 01:42:56;;;;;;;65.05;38.45;;;;;;;3.38;84.73;101898.41;5079617;28;20051;-54
2022/01/19 01:45:28;;;;;;;14.80;6.80;;;;;;;3.39;85.32;101903.59;5081713;28;20374;-55
2022/01/19 01:48:05;;;;;;;33.33;17.23;;;;;;;3.39;85.18;101892.47;5083881;28;20068;-54
2022/01/19 01:53:28;;;;;;;47.55;19.42;;;;;;;3.38;84.70;101896.72;5080699;28;20512;-55
2022/01/19 01:56:00;;;;;;;93.35;42.17;;;;;;;3.37;85.33;101884.72;5083855;28;20041;-54
2022/01/19 01:58:31;;;;;;;58.13;24.33;;;;;;;3.39;84.53;101893.34;5074655;28;20048;-55
2022/01/19 02:00:58;;;;;;;56.95;27.17;;;;;;;3.39;84.94;101871.94;5087964;28;20079;-55
2022/01/19 02:03:26;;;;;;;61.63;29.95;;;;;;;3.37;85.16;101863.34;5085594;28;20411;-54
2022/01/19 02:08:40;;;;;;;103.75;46.83;;;;;;;3.33;84.93;101848.66;5079125;28;20565;-55
2022/01/19 02:11:32;;;;;;;34.65;15.07;;;;;;;3.32;84.83;101836.66;5080200;28;20052;-55
2022/01/19 02:21:35;;;;;;;24.38;11.10;;;;;;;3.31;85.37;101833.22;5081829;28;20059;-55
2022/01/19 02:22:20;;;;;;;8.07;4.15;;;;;;;3.32;84.83;101845.22;5081989;28;20052;-55
2022/01/19 02:24:49;;;;;;;7.50;3.38;;;;;;;3.34;85.19;101863.22;5079344;28;20056;-55
2022/01/19 02:30:46;;;;;;;7.53;3.10;;;;;;;3.35;85.32;101867.53;5079531;28;20140;-54
2022/01/19 02:41:28;;;;;;;9.00;3.10;;;;;;;3.39;84.86;101847.19;5081253;28;20059;-54
2022/01/19 02:43:56;;;;;;;9.55;3.17;;;;;;;3.42;84.37;101843.88;5078245;28;20061;-52
2022/01/19 02:46:41;;;;;;;8.63;3.33;;;;;;;3.42;84.29;101836.19;5080528;28;20058;-54
2022/01/19 02:49:15;;;;;;;9.82;3.20;;;;;;;3.43;84.86;101828.56;5080891;28;20060;-54
2022/01/19 02:51:43;;;;;;;8.77;3.45;;;;;;;3.41;84.48;101824.19;5080484;28;20485;-55
2022/01/19 02:54:14;;;;;;;8.00;2.97;;;;;;;3.41;84.72;101813.94;5082639;28;20048;-55
2022/01/19 02:56:44;;;;;;;9.00;3.10;;;;;;;3.41;84.71;101813.94;5080875;28;20052;-54
2022/01/19 02:59:17;;;;;;;9.73;3.70;;;;;;;3.41;84.74;101814.81;5079446;28;20059;-54
2022/01/19 03:10:00;;;;;;;9.30;3.63;;;;;;;3.29;84.23;101792.97;5081446;28;20055;-54
2022/01/19 03:12:27;;;;;;;8.50;3.40;;;;;;;3.31;84.43;101786.22;5079659;28;20101;-52
2022/01/19 03:14:54;;;;;;;7.85;3.85;;;;;;;3.30;84.58;101792.16;5075483;28;20067;-52
2022/01/19 03:17:21;;;;;;;7.20;4.10;;;;;;;3.29;84.46;101782.72;5081696;28;20055;-53
2022/01/19 03:19:48;;;;;;;9.30;4.30;;;;;;;3.24;84.28;101774.00;5082606;28;20052;-53
2022/01/19 03:22:16;;;;;;;10.43;3.70;;;;;;;3.23;84.23;101772.25;5080776;28;20044;-54
2022/01/19 03:24:49;;;;;;;6.40;3.38;;;;;;;3.18;84.58;101764.38;5078194;28;20048;-50
2022/01/19 03:27:19;;;;;;;10.38;4.25;;;;;;;3.14;84.38;101758.28;5076920;28;20075;-54
2022/01/19 03:29:46;;;;;;;6.93;3.53;;;;;;;3.09;84.44;101744.38;5076560;28;20040;-52
2022/01/19 03:32:13;;;;;;;7.80;4.07;;;;;;;3.05;84.90;101742.50;5075923;28;20052;-54
2022/01/19 03:34:41;;;;;;;10.50;4.38;;;;;;;3.00;84.64;101741.47;5074829;28;20044;-54
2022/01/19 03:37:08;;;;;;;9.82;4.40;;;;;;;2.96;84.87;101742.16;5077651;28;20151;-54
2022/01/19 03:39:36;;;;;;;10.15;4.60;;;;;;;2.93;84.71;101742.06;5074483;28;20041;-54
2022/01/19 03:42:03;;;;;;;8.82;4.72;;;;;;;2.91;84.56;101738.56;5075765;28;20040;-53
2022/01/19 03:44:32;;;;;;;8.43;4.43;;;;;;;2.90;84.99;101739.38;5074053;28;20139;-54
2022/01/19 03:47:01;;;;;;;15.00;4.70;;;;;;;2.86;84.99;101740.06;5079868;28;20052;-53
2022/01/19 03:49:33;;;;;;;6.85;4.50;;;;;;;2.83;85.38;101742.50;5075119;28;20059;-54
2022/01/19 03:52:02;;;;;;;8.48;5.03;;;;;;;2.82;84.99;101735.66;5079422;28;20060;-54
2022/01/19 03:54:31;;;;;;;8.98;4.32;;;;;;;2.83;85.25;101745.06;5076212;28;20401;-54
2022/01/19 03:56:58;;;;;;;14.48;4.57;;;;;;;2.82;85.32;101748.44;5074340;28;20385;-54
2022/01/19 03:59:26;;;;;;;10.85;4.93;;;;;;;2.85;85.57;101743.44;5072902;28;20067;-54
2022/01/19 04:01:57;;;;;;;13.90;4.50;;;;;;;2.84;85.19;101737.44;5076690;28;20060;-54
2022/01/19 04:04:34;;;;;;;8.00;4.50;;;;;;;2.83;85.60;101745.06;5074137;28;20051;-54
2022/01/19 04:07:09;;;;;;;12.77;4.80;;;;;;;2.84;85.08;101736.56;5073295;28;20060;-54
2022/01/19 04:09:37;;;;;;;9.50;4.60;;;;;;;2.83;85.56;101729.72;5072648;28;20047;-53
2022/01/19 04:12:06;;;;;;;8.55;4.28;;;;;;;2.83;85.19;101739.97;5079254;28;20047;-54
2022/01/19 04:14:34;;;;;;;13.18;5.38;;;;;;;2.79;85.93;101722.72;5075579;28;20071;-53
2022/01/19 04:17:06;;;;;;;9.82;5.30;;;;;;;2.79;85.71;101727.84;5074550;28;20048;-54
2022/01/19 04:19:41;;;;;;;12.35;5.50;;;;;;;2.81;85.94;101721.09;5074768;28;20044;-53
2022/01/19 04:22:10;;;;;;;9.77;4.35;;;;;;;2.83;85.69;101719.47;5074769;28;20052;-54
2022/01/19 04:24:38;;;;;;;10.25;5.13;;;;;;;2.82;85.36;101722.84;5076843;28;20052;-53
2022/01/19 04:29:57;;;;;;;10.13;5.10;;;;;;;2.83;85.17;101722.03;5079003;28;20179;-54
2022/01/19 04:32:32;;;;;;;9.60;5.05;;;;;;;2.86;85.34;101722.16;5072514;28;20064;-54
2022/01/19 04:35:04;;;;;;;13.85;5.78;;;;;;;2.89;85.91;101713.72;5075720;28;20083;-53
2022/01/19 04:37:44;;;;;;;8.98;4.78;;;;;;;2.89;85.88;101706.03;5073288;28;20497;-54
2022/01/19 05:02:44;;;;;;;12.45;5.68;;;;;;;2.87;85.42;101690.59;5066453;28;20098;-52
2022/01/19 05:05:20;;;;;;;14.13;5.85;;;;;;;2.85;85.65;101682.88;5073909;28;20052;-54
2022/01/19 05:07:57;;;;;;;11.60;5.65;;;;;;;2.85;85.01;101679.44;5071399;28;20051;-53
2022/01/19 05:13:31;;;;;;;13.02;6.38;;;;;;;2.84;85.38;101672.56;5075726;28;20058;-54
2022/01/19 05:15:58;;;;;;;12.43;6.32;;;;;;;2.81;85.26;101665.63;5072049;28;20465;-54
2022/01/19 05:18:25;;;;;;;13.32;5.88;;;;;;;2.80;85.20;101663.03;5074717;28;20095;-54
2022/01/19 05:20:54;;;;;;;17.92;7.32;;;;;;;2.76;85.66;101672.28;5076729;28;20036;-54
2022/01/19 05:23:21;;;;;;;12.90;6.28;;;;;;;2.73;85.19;101661.91;5075085;28;20501;-52
2022/01/19 05:25:49;;;;;;;9.95;5.28;;;;;;;2.72;85.58;101661.84;5076316;28;20048;-54
2022/01/19 05:28:16;;;;;;;10.55;5.30;;;;;;;2.71;85.68;101653.31;5072824;28;20047;-54
2022/01/19 05:30:43;;;;;;;13.55;6.13;;;;;;;2.71;85.32;101642.19;5077534;28;20680;-54
2022/01/19 05:33:11;;;;;;;10.95;5.95;;;;;;;2.70;85.75;101645.56;5071415;28;20084;-54
2022/01/19 05:35:38;;;;;;;14.32;6.70;;;;;;;2.68;85.91;101642.06;5072459;28;20063;-54
2022/01/19 05:38:07;;;;;;;12.30;6.53;;;;;;;2.63;85.40;101634.22;5074743;28;20071;-53
2022/01/19 05:40:34;;;;;;;12.27;6.57;;;;;;;2.61;86.06;101640.97;5073847;28;20044;-53
2022/01/19 05:43:01;;;;;;;14.02;6.97;;;;;;;2.62;85.42;101636.72;5074264;28;20041;-53
2022/01/19 05:45:29;;;;;;;17.45;7.20;;;;;;;2.59;85.23;101631.47;5072684;28;20059;-54
2022/01/19 05:47:57;;;;;;;17.83;8.45;;;;;;;2.60;85.48;101628.09;5075161;28;20051;-54
2022/01/19 05:50:24;;;;;;;14.60;6.53;;;;;;;2.58;85.80;101624.59;5072866;28;20398;-54
2022/01/19 05:52:51;;;;;;;12.23;6.63;;;;;;;2.59;85.51;101626.34;5071470;28;20155;-53
2022/01/19 05:55:21;;;;;;;11.02;6.30;;;;;;;2.60;85.23;101633.19;5075518;28;20051;-53
2022/01/19 05:57:48;;;;;;;15.15;8.48;;;;;;;2.60;85.44;101633.19;5074496;28;20391;-51
2022/01/19 06:00:16;;;;;;;31.20;12.50;;;;;;;2.60;85.66;101633.19;5072737;28;20053;-53
2022/01/19 06:02:43;;;;;;;29.48;10.23;;;;;;;2.55;85.77;101625.34;5074600;28;20071;-54
2022/01/19 06:05:11;;;;;;;18.98;9.15;;;;;;;2.53;85.70;101625.28;5074261;28;20040;-53
2022/01/19 06:07:44;;;;;;;19.08;8.15;;;;;;;2.48;85.92;101619.13;5076842;28;20556;-54
2022/01/19 06:10:42;;;;;;;17.60;8.27;;;;;;;2.49;85.74;101610.63;5074904;28;20044;-53
2022/01/19 06:13:01;;;;;;;20.13;8.70;;;;;;;2.49;85.61;101602.97;5076727;28;20596;-53
2022/01/19 06:15:28;;;;;;;21.38;9.50;;;;;;;2.50;85.38;101591.91;5076649;28;20052;-54
2022/01/19 06:17:56;;;;;;;60.20;19.17;;;;;;;2.47;85.69;101581.56;5078918;28;20040;-52
2022/01/19 06:20:23;;;;;;;23.10;10.20;;;;;;;2.45;85.73;101583.19;5076170;28;20131;-52
2022/01/19 06:22:50;;;;;;;29.70;12.02;;;;;;;2.43;85.65;101574.56;5074642;28;20044;-52
2022/01/19 06:25:17;;;;;;;17.38;8.45;;;;;;;2.42;86.08;101572.84;5077895;28;20060;-55
2022/01/19 06:27:45;;;;;;;16.85;7.80;;;;;;;2.40;86.07;101564.22;5052148;28;20064;-59
2022/01/19 06:30:14;;;;;;;14.93;8.00;;;;;;;2.41;86.10;101555.72;5051101;28;20048;-58
2022/01/19 06:32:42;;;;;;;19.13;8.15;;;;;;;2.40;85.41;101548.88;5054199;28;20056;-59
2022/01/19 06:35:10;;;;;;;21.38;8.45;;;;;;;2.39;86.12;101561.59;5056128;28;20052;-58
2022/01/19 06:37:37;;;;;;;15.77;7.63;;;;;;;2.35;86.30;101550.38;5057644;28;20060;-59
2022/01/19 06:40:06;;;;;;;15.88;7.88;;;;;;;2.32;85.97;101550.28;5056148;28;20052;-59
2022/01/19 06:42:34;;;;;;;17.35;7.55;;;;;;;2.30;85.89;101546.78;5055949;28;20456;-59
2022/01/19 06:45:02;;;;;;;14.50;6.75;;;;;;;2.27;86.05;101541.56;5057320;28;20774;-59
2022/01/19 06:47:30;;;;;;;16.73;7.55;;;;;;;2.27;85.97;101539.00;5060782;28;20064;-59
2022/01/19 06:49:58;;;;;;;14.63;7.47;;;;;;;2.26;85.98;101534.69;5057444;28;20060;-59
2022/01/19 06:52:25;;;;;;;15.82;7.95;;;;;;;2.24;86.53;101538.00;5058215;28;20413;-59
2022/01/19 06:54:52;;;;;;;14.80;7.80;;;;;;;2.22;86.49;101532.84;5059148;28;20449;-58
2022/01/19 06:57:19;;;;;;;16.95;8.88;;;;;;;2.22;86.05;101517.50;5060570;28;20040;-59
2022/01/19 06:59:48;;;;;;;18.88;8.77;;;;;;;2.20;85.88;101514.00;5059117;28;20072;-59
2022/01/19 07:02:15;;;;;;;18.60;8.27;;;;;;;2.20;86.16;101512.31;5055485;28;20117;-59
2022/01/19 07:04:49;;;;;;;15.75;8.32;;;;;;;2.19;86.03;101512.25;5057965;28;20106;-59
2022/01/19 07:07:17;;;;;;;15.82;7.65;;;;;;;2.21;86.00;101508.06;5059545;28;20118;-59
2022/01/19 07:09:45;;;;;;;17.08;7.75;;;;;;;2.21;85.87;101505.50;5053419;28;20076;-59
2022/01/19 07:12:13;;;;;;;15.95;7.82;;;;;;;2.21;85.95;101502.94;5057609;28;20397;-59
2022/01/19 07:14:40;;;;;;;16.30;7.82;;;;;;;2.21;85.58;101500.41;5054450;28;20076;-59
2022/01/19 07:17:08;;;;;;;16.52;8.10;;;;;;;2.22;86.12;101502.13;5056400;28;20056;-59
2022/01/19 07:19:35;;;;;;;20.60;10.40;;;;;;;2.22;85.86;101502.13;5055847;28;20048;-59
2022/01/19 07:22:04;;;;;;;18.30;9.25;;;;;;;2.21;85.71;101491.03;5055749;28;20316;-59
2022/01/19 07:24:32;;;;;;;26.67;11.18;;;;;;;2.19;85.45;101487.53;5054654;28;20098;-59
2022/01/19 07:26:59;;;;;;;41.13;16.08;;;;;;;2.20;85.69;101496.09;5057512;28;20052;-59
2022/01/19 07:29:26;;;;;;;22.48;10.85;;;;;;;2.17;85.64;101499.41;5063182;28;20631;-59
2022/01/19 07:31:55;;;;;;;16.10;7.85;;;;;;;2.16;86.12;101492.53;5056439;28;20095;-59
2022/01/19 07:34:23;;;;;;;19.02;7.80;;;;;;;2.18;85.99;101505.41;5061235;28;20055;-59
2022/01/19 07:36:50;;;;;;;14.30;7.22;;;;;;;2.17;85.50;101499.41;5061110;28;20048;-59
2022/01/19 07:39:18;;;;;;;15.13;6.93;;;;;;;2.18;86.15;101487.50;5056261;28;20052;-59
2022/01/19 07:41:45;;;;;;;13.43;7.10;;;;;;;2.20;85.98;101485.84;5053783;28;20718;-59
2022/01/19 07:44:13;;;;;;;14.48;7.88;;;;;;;2.21;85.42;101483.34;5053696;28;20052;-59
2022/01/19 07:46:40;;;;;;;15.82;7.78;;;;;;;2.25;85.38;101491.16;5061033;28;20421;-59
2022/01/19 07:49:07;;;;;;;13.15;6.82;;;;;;;2.27;85.02;101492.94;5058069;28;20052;-59
2022/01/19 07:51:34;;;;;;;14.05;7.95;;;;;;;2.31;84.99;101491.38;5056793;28;20469;-59
2022/01/19 07:54:01;;;;;;;34.38;21.98;;;;;;;2.31;85.46;101484.56;5061131;28;20053;-59
2022/01/19 07:56:30;;;;;;;19.75;13.68;;;;;;;2.32;85.41;101483.75;5058069;28;20155;-59
2022/01/19 07:58:57;;;;;;;14.18;7.13;;;;;;;2.35;85.24;101483.00;5057423;28;20792;-59
2022/01/19 08:01:25;;;;;;;18.52;9.98;;;;;;;2.36;85.38;101480.50;5055782;28;20071;-59
2022/01/19 08:03:53;;;;;;;20.33;9.93;;;;;;;2.37;84.83;101476.25;5057175;28;20437;-60
2022/01/19 08:06:20;;;;;;;15.60;8.45;;;;;;;2.38;85.41;101468.63;5055168;28;20098;-59
2022/01/19 08:08:47;;;;;;;15.35;7.53;;;;;;;2.40;85.09;101459.31;5057625;28;20048;-59
2022/01/19 08:11:14;;;;;;;17.75;9.25;;;;;;;2.44;84.90;101450.94;5058404;28;20052;-58
2022/01/19 08:13:42;;;;;;;19.90;9.15;;;;;;;2.45;84.68;101450.13;5056574;28;20057;-59
2022/01/19 08:16:10;;;;;;;17.08;8.88;;;;;;;2.47;84.83;101439.94;5056739;28;20078;-59
2022/01/19 08:18:37;;;;;;;20.13;9.55;;;;;;;2.49;84.50;101444.28;5052591;28;20048;-58
2022/01/19 08:21:04;;;;;;;21.67;9.70;;;;;;;2.52;84.13;101426.47;5052845;28;20048;-59
2022/01/19 08:23:31;;;;;;;15.80;8.32;;;;;;;2.56;84.45;101437.69;5053632;28;20061;-59
2022/01/19 08:25:58;;;;;;;14.55;8.75;;;;;;;2.58;84.35;101435.19;5053141;28;20040;-59
2022/01/19 08:28:25;;;;;;;15.82;7.75;;;;;;;2.58;83.98;101424.94;5054016;28;20706;-58
2022/01/19 08:30:54;;;;;;;13.73;6.78;;;;;;;2.57;84.12;101425.75;5054875;28;20044;-58
2022/01/19 08:33:21;;;;;;;18.88;9.27;;;;;;;2.58;84.23;101409.59;5050329;28;20061;-58
2022/01/19 08:35:48;;;;;;;28.77;13.25;;;;;;;2.57;84.36;101412.97;5049850;28;20049;-58
2022/01/19 08:38:15;;;;;;;16.60;8.73;;;;;;;2.57;84.33;101410.41;5055271;28;20451;-58
2022/01/19 08:40:42;;;;;;;14.40;7.80;;;;;;;2.57;84.62;101405.28;5055753;28;20045;-58
2022/01/19 08:43:09;;;;;;;17.45;8.95;;;;;;;2.59;84.53;101421.56;5053820;28;20060;-58
2022/01/19 08:45:37;;;;;;;15.00;8.93;;;;;;;2.62;83.97;101414.03;5055069;28;20048;-58
2022/01/19 08:48:06;;;;;;;13.93;7.90;;;;;;;2.66;83.67;101413.31;5052385;28;20055;-58
2022/01/19 08:50:34;;;;;;;19.55;8.95;;;;;;;2.68;83.87;101402.31;5052756;28;20056;-58
2022/01/19 08:53:02;;;;;;;19.10;9.18;;;;;;;2.72;84.00;101408.41;5052666;28;20120;-57
2022/01/19 08:55:29;;;;;;;15.10;8.88;;;;;;;2.71;83.64;101396.41;5052939;28;20052;-58
2022/01/19 08:57:57;;;;;;;19.88;9.32;;;;;;;2.76;83.75;101400.88;5052392;28;20068;-58
2022/01/19 09:00:24;;;;;;;18.23;9.15;;;;;;;2.80;83.50;101391.59;5053546;28;20055;-58
2022/01/19 09:02:51;;;;;;;16.73;8.73;;;;;;;2.82;82.78;101389.97;5052203;28;20044;-58
2022/01/19 09:05:20;;;;;;;19.35;8.88;;;;;;;2.84;82.88;101396.00;5052402;28;20060;-58
2022/01/19 09:07:47;;;;;;;14.60;7.53;;;;;;;2.89;82.81;101402.16;5051640;28;20048;-58
2022/01/19 09:10:15;;;;;;;18.45;8.73;;;;;;;2.96;83.25;101409.22;5053898;28;20916;-58
2022/01/19 09:12:43;;;;;;;19.10;8.63;;;;;;;3.01;82.69;101402.56;5052068;28;20044;-57
2022/01/19 09:15:12;;;;;;;19.75;9.93;;;;;;;3.06;82.31;101403.56;5053456;28;20417;-59
2022/01/19 09:17:41;;;;;;;16.75;8.30;;;;;;;3.11;81.88;101396.91;5057077;28;20151;-59
2022/01/19 09:20:09;;;;;;;14.07;7.45;;;;;;;3.16;82.08;101402.22;5051598;28;20844;-58
2022/01/19 09:22:39;;;;;;;14.75;8.70;;;;;;;3.18;81.29;101395.44;5053791;28;20057;-58
2022/01/19 09:25:08;;;;;;;16.33;8.85;;;;;;;3.18;81.86;101380.06;5056466;28;20446;-58
2022/01/19 09:27:37;;;;;;;14.70;8.02;;;;;;;3.21;81.96;101374.16;5050158;28;20053;-59
2022/01/19 09:30:07;;;;;;;16.55;8.52;;;;;;;3.19;81.29;101363.00;5051598;28;20052;-59
2022/01/19 09:32:34;;;;;;;22.10;9.00;;;;;;;3.17;81.45;101374.06;5057663;28;20053;-59
2022/01/19 09:35:07;;;;;;;14.95;7.80;;;;;;;3.17;81.21;101373.19;5053971;28;20056;-59
2022/01/19 09:37:34;;;;;;;14.55;8.00;;;;;;;3.12;81.91;101359.34;5051104;28;20106;-58
2022/01/19 09:40:05;;;;;;;17.02;8.25;;;;;;;3.10;81.51;101361.84;5056868;28;20048;-59
2022/01/19 09:42:32;;;;;;;14.43;8.27;;;;;;;3.11;81.78;101363.59;5058125;28;20389;-58
2022/01/19 09:44:59;;;;;;;14.20;7.75;;;;;;;3.12;81.58;101370.50;5058029;28;21102;-58
2022/01/19 09:47:26;;;;;;;15.68;8.70;;;;;;;3.16;81.70;101362.09;5055647;28;20480;-59
2022/01/19 09:49:54;;;;;;;17.23;9.07;;;;;;;3.23;81.73;101369.97;5055759;28;20044;-59
2022/01/19 09:52:21;;;;;;;16.65;8.55;;;;;;;3.23;80.98;101358.03;5057287;28;20041;-59
2022/01/19 09:54:48;;;;;;;18.95;9.48;;;;;;;3.28;80.69;101366.72;5055360;28;20528;-59
2022/01/19 09:57:17;;;;;;;23.13;11.40;;;;;;;3.31;80.84;101366.81;5056087;28;20052;-59
2022/01/19 09:59:44;;;;;;;18.73;10.07;;;;;;;3.35;80.70;101360.09;5061553;28;20110;-58
2022/01/19 10:02:12;;;;;;;19.73;9.27;;;;;;;3.40;80.71;101363.66;5055492;28;20477;-58
2022/01/19 10:04:42;;;;;;;13.57;8.15;;;;;;;3.45;80.09;101364.66;5057057;28;20056;-59
2022/01/19 10:07:14;;;;;;;17.42;8.90;;;;;;;3.54;79.96;101369.19;5058259;28;20048;-59
2022/01/19 10:09:53;;;;;;;15.70;8.25;;;;;;;3.64;80.19;101366.97;5055730;28;20044;-59
2022/01/19 10:18:11;;;;;;;14.98;8.05;;;;;;;3.97;78.72;101355.94;5055719;28;20113;-58
2022/01/19 10:20:39;;;;;;;14.40;7.13;;;;;;;4.01;77.59;101358.63;5058643;28;20577;-58
2022/01/19 10:23:13;;;;;;;15.00;7.47;;;;;;;4.06;77.68;101351.06;5053772;28;20055;-59
2022/01/19 10:25:50;;;;;;;20.83;8.18;;;;;;;4.12;77.41;101352.09;5052310;28;20056;-59
2022/01/19 10:28:19;;;;;;;17.75;8.60;;;;;;;4.16;77.46;101345.38;5054348;28;20108;-59
2022/01/19 10:30:46;;;;;;;23.52;8.27;;;;;;;4.24;77.00;101349.03;5055823;28;20126;-59
2022/01/19 10:33:18;;;;;;;16.40;8.73;;;;;;;4.30;76.90;101345.75;5054510;28;20536;-59
2022/01/19 10:35:47;;;;;;;26.33;8.68;;;;;;;4.35;76.96;101345.06;5054822;28;20118;-55
2022/01/19 10:38:19;;;;;;;19.17;9.45;;;;;;;4.39;76.81;101331.47;5057895;28;20172;-54
2022/01/19 10:41:06;;;;;;;17.67;10.60;;;;;;;4.43;76.44;101327.28;5053744;28;20482;-55
2022/01/19 10:43:38;;;;;;;19.00;8.68;;;;;;;4.39;75.87;101321.19;5053993;28;20048;-54
2022/01/19 10:46:25;;;;;;;18.35;8.38;;;;;;;4.39;75.86;101318.63;5054109;28;20052;-53
2022/01/19 10:48:59;;;;;;;19.85;8.82;;;;;;;4.41;76.03;101319.53;5055498;28;20078;-55
2022/01/19 10:51:32;;;;;;;17.05;9.50;;;;;;;4.43;76.41;101301.63;5056733;28;20057;-54
2022/01/19 10:54:14;;;;;;;17.80;9.50;;;;;;;4.43;76.68;101302.47;5054266;28;20064;-54
2022/01/19 10:56:43;;;;;;;23.70;11.32;;;;;;;4.42;76.16;101305.00;5065485;28;20048;-54
2022/01/19 10:59:14;;;;;;;26.05;12.63;;;;;;;4.42;76.30;101295.59;5061285;28;20052;-53
2022/01/19 11:01:45;;;;;;;17.63;9.77;;;;;;;4.42;76.01;101289.59;5065584;28;20724;-54
2022/01/19 11:04:21;;;;;;;15.13;8.98;;;;;;;4.46;75.38;101282.84;5063629;28;20059;-55
2022/01/19 11:06:49;;;;;;;23.40;9.23;;;;;;;4.41;75.86;101286.16;5064592;28;20494;-53
2022/01/19 11:09:19;;;;;;;15.70;9.13;;;;;;;4.36;75.97;101271.47;5065718;28;20053;-55
2022/01/19 11:11:46;;;;;;;19.50;10.75;;;;;;;4.34;76.08;101271.44;5065243;28;20077;-55
2022/01/19 11:14:15;;;;;;;20.83;11.25;;;;;;;4.33;76.19;101264.56;5067732;28;20074;-54
2022/01/19 11:16:43;;;;;;;16.10;9.15;;;;;;;4.30;75.98;101261.94;5064836;28;20068;-55
2022/01/19 11:19:10;;;;;;;25.13;14.75;;;;;;;4.31;76.32;101255.97;5063387;28;20048;-54
2022/01/19 11:21:45;;;;;;;20.77;10.85;;;;;;;4.27;76.21;101249.03;5066277;28;20067;-54
2022/01/19 11:24:19;;;;;;;19.13;10.38;;;;;;;4.26;75.96;101247.28;5062866;28;20055;-54
2022/01/19 11:26:48;;;;;;;25.73;11.45;;;;;;;4.25;75.94;101240.41;5064899;28;20044;-54
2022/01/19 11:29:20;;;;;;;19.13;10.80;;;;;;;4.30;75.52;101231.13;5065190;28;20079;-54
2022/01/19 11:31:47;;;;;;;18.55;11.32;;;;;;;4.32;75.61;101219.22;5065626;28;20076;-55
2022/01/19 11:34:15;;;;;;;24.25;12.20;;;;;;;4.37;75.79;101220.19;5064860;28;20105;-54
2022/01/19 11:36:43;;;;;;;22.02;10.95;;;;;;;4.39;75.31;101213.38;5064293;28;20052;-55
2022/01/19 11:39:13;;;;;;;23.52;11.95;;;;;;;4.46;74.62;101213.53;5067015;28;20072;-55
2022/01/19 11:41:47;;;;;;;27.73;13.43;;;;;;;4.50;75.13;101207.63;5064114;28;20059;-54
2022/01/19 11:44:23;;;;;;;27.80;13.30;;;;;;;4.56;74.58;101205.22;5064443;28;20470;-54
2022/01/19 11:46:53;;;;;;;19.83;11.07;;;;;;;4.58;74.06;101198.41;5065956;28;20072;-54
2022/01/19 11:49:47;;;;;;;29.60;14.52;;;;;;;4.62;74.03;101189.94;5065961;28;20083;-54
2022/01/19 11:52:16;;;;;;;20.75;10.50;;;;;;;4.62;74.20;101184.81;5065140;28;20064;-55
2022/01/19 11:54:43;;;;;;;24.00;12.18;;;;;;;4.63;74.12;101171.16;5064401;28;20053;-55
2022/01/19 11:57:14;;;;;;;22.65;12.48;;;;;;;4.63;74.58;101171.16;5065983;28;20063;-53
2022/01/19 12:00:18;;;;;;;21.63;11.43;;;;;;;4.62;73.90;101149.72;5066009;28;20056;-54
2022/01/19 12:02:48;;;;;;;23.50;13.25;;;;;;;4.58;74.00;101154.78;5004366;28;20459;-55
2022/01/19 12:05:20;;;;;;;22.73;10.65;;;;;;;4.51;73.79;101142.63;5003252;28;20072;-55
2022/01/19 12:07:50;;;;;;;25.23;12.57;;;;;;;4.45;74.78;101133.09;5036454;28;20567;-55
2022/01/19 12:10:20;;;;;;;20.90;10.95;;;;;;;4.43;75.17;101129.63;5066488;28;20084;-54
2022/01/19 12:13:28;;;;;;;19.80;10.13;;;;;;;4.38;74.47;101118.38;5066780;28;20048;-55
2022/01/19 12:16:01;;;;;;;17.85;9.43;;;;;;;4.35;74.82;101108.06;5062154;28;20054;-55
2022/01/19 12:18:49;;;;;;;17.05;9.25;;;;;;;4.32;74.68;101093.44;5063949;28;20067;-54
2022/01/19 12:21:38;;;;;;;21.50;11.43;;;;;;;4.31;75.69;101094.28;5067862;28;20413;-54
2022/01/19 12:24:19;;;;;;;22.67;11.73;;;;;;;4.27;75.69;101089.91;5063106;28;20394;-54
2022/01/19 12:26:59;;;;;;;24.63;13.07;;;;;;;4.28;76.12;101091.66;5065015;28;20048;-54
2022/01/19 12:29:51;;;;;;;26.08;13.25;;;;;;;4.25;76.44;101078.75;5064660;28;20048;-54
2022/01/19 12:32:48;;;;;;;21.05;11.15;;;;;;;4.24;76.21;101069.31;5064025;28;20052;-54
2022/01/19 12:35:20;;;;;;;22.00;11.30;;;;;;;4.23;76.22;101057.31;5067568;28;20508;-54
2022/01/19 12:37:50;;;;;;;23.88;11.93;;;;;;;4.17;76.12;101052.06;5063181;28;20052;-54
2022/01/19 12:40:35;;;;;;;22.75;12.82;;;;;;;4.17;75.92;101048.63;5065172;28;20052;-54
2022/01/19 12:43:05;;;;;;;21.83;11.45;;;;;;;4.15;76.36;101048.56;5062835;28;20052;-53
2022/01/19 12:45:36;;;;;;;18.33;10.68;;;;;;;4.14;76.03;101034.00;5066832;28;20595;-54